createdAt,value
2022-09-11T00:01:44.060Z,0.70
2022-09-11T00:04:12.655Z,0.80
2022-09-11T00:06:41.085Z,0.57
2022-09-11T00:09:09.759Z,0.50
2022-09-11T00:11:41.716Z,0.40
2022-09-11T00:14:11.898Z,0.50
2022-09-11T00:16:45.199Z,0.30
2022-09-11T00:19:15.895Z,0.50
2022-09-11T00:21:45.544Z,0.43
2022-09-11T00:24:14.730Z,0.55
2022-09-11T00:26:43.651Z,0.57
2022-09-11T00:29:12.576Z,0.52
2022-09-11T00:31:42.414Z,0.60
2022-09-11T00:34:10.970Z,0.40
2022-09-11T00:36:41.700Z,0.60
2022-09-11T00:39:12.612Z,0.50
2022-09-11T00:41:42.654Z,0.50
2022-09-11T00:44:45.616Z,0.40
2022-09-11T00:47:19.327Z,0.35
2022-09-11T00:52:21.188Z,0.60
2022-09-11T00:54:56.623Z,0.40
2022-09-11T00:57:27.996Z,0.40
2022-09-11T00:59:58.677Z,0.60
2022-09-11T01:02:31.748Z,0.50
2022-09-11T01:05:00.155Z,0.50
2022-09-11T01:07:30.577Z,0.50
2022-09-11T01:10:00.611Z,0.60
2022-09-11T01:12:36.728Z,0.52
2022-09-11T01:15:08.294Z,0.50
2022-09-11T01:17:49.447Z,0.50
2022-09-11T01:20:26.935Z,0.60
2022-09-11T01:23:24.799Z,0.50
2022-09-11T01:26:10.364Z,0.60
2022-09-11T01:28:46.767Z,0.60
2022-09-11T01:31:21.460Z,0.50
2022-09-11T01:33:56.572Z,0.55
2022-09-11T01:36:31.544Z,0.60
2022-09-11T01:41:33.129Z,0.57
2022-09-11T01:44:07.531Z,0.85
2022-09-11T01:46:41.479Z,0.43
2022-09-11T01:49:16.768Z,0.50
2022-09-11T01:51:45.316Z,0.40
2022-09-11T01:54:18.875Z,0.60
2022-09-11T01:56:51.844Z,0.50
2022-09-11T01:59:28.090Z,0.75
2022-09-11T02:02:06.917Z,0.50
2022-09-11T02:04:40.399Z,0.50
2022-09-11T02:07:13.121Z,0.70
2022-09-11T02:09:46.468Z,0.88
2022-09-11T02:12:17.581Z,0.90
2022-09-11T02:14:49.651Z,0.80
2022-09-11T02:17:25.943Z,0.82
2022-09-11T02:19:56.308Z,1.02
2022-09-11T02:22:25.216Z,0.88
2022-09-11T02:24:53.884Z,1.13
2022-09-11T02:27:25.947Z,1.40
2022-09-11T02:29:56.643Z,1.58
2022-09-11T02:32:26.423Z,1.90
2022-09-11T02:34:56.681Z,2.35
2022-09-11T02:37:40.155Z,2.20
2022-09-11T02:40:39.111Z,2.35
2022-09-11T02:43:26.483Z,2.58
2022-09-11T02:46:07.585Z,2.50
2022-09-11T02:48:52.659Z,2.90
2022-09-11T02:51:29.975Z,2.83
2022-09-11T02:54:07.654Z,3.08
2022-09-11T02:56:43.918Z,2.80
2022-09-11T02:59:19.252Z,2.78
2022-09-11T03:01:53.960Z,2.50
2022-09-11T03:04:24.621Z,2.53
2022-09-11T03:06:54.084Z,3.08
2022-09-11T03:09:22.567Z,2.97
2022-09-11T03:11:50.920Z,2.95
2022-09-11T03:14:19.748Z,3.20
2022-09-11T03:16:50.325Z,3.45
2022-09-11T03:19:18.596Z,3.47
2022-09-11T03:21:46.843Z,3.97
2022-09-11T03:24:15.914Z,3.33
2022-09-11T03:26:44.584Z,3.60
2022-09-11T03:29:13.765Z,3.65
2022-09-11T03:31:42.427Z,4.28
2022-09-11T03:34:12.261Z,4.25
2022-09-11T03:36:40.943Z,4.15
2022-09-11T03:39:09.285Z,4.07
2022-09-11T03:41:37.611Z,4.35
2022-09-11T03:44:06.088Z,3.90
2022-09-11T03:46:35.220Z,4.18
2022-09-11T03:49:03.665Z,4.18
2022-09-11T03:51:33.515Z,4.95
2022-09-11T03:54:02.509Z,4.97
2022-09-11T03:56:31.161Z,5.15
2022-09-11T03:59:01.395Z,5.07
2022-09-11T04:01:31.212Z,5.38
2022-09-11T04:03:59.631Z,5.45
2022-09-11T04:06:27.941Z,5.32
2022-09-11T04:08:57.738Z,4.80
2022-09-11T04:11:26.039Z,5.13
2022-09-11T04:13:54.846Z,5.28
2022-09-11T04:16:23.331Z,5.57
2022-09-11T04:18:53.657Z,5.68
2022-09-11T04:21:21.959Z,5.68
2022-09-11T04:23:53.506Z,5.47
2022-09-11T04:26:25.380Z,5.50
2022-09-11T04:28:54.079Z,6.00
2022-09-11T04:31:23.491Z,5.38
2022-09-11T04:33:55.845Z,5.20
2022-09-11T04:36:27.268Z,5.25
2022-09-11T04:38:57.984Z,5.30
2022-09-11T04:41:29.069Z,5.95
2022-09-11T04:44:03.867Z,5.15
2022-09-11T04:46:33.559Z,6.80
2022-09-11T04:49:02.431Z,9.68
2022-09-11T04:51:32.526Z,9.40
2022-09-11T04:54:02.149Z,7.40
2022-09-11T04:56:34.413Z,6.10
2022-09-11T04:59:05.640Z,6.40
2022-09-11T05:01:35.812Z,6.85
2022-09-11T05:04:04.919Z,6.65
2022-09-11T05:06:34.177Z,7.72
2022-09-11T05:09:04.512Z,7.50
2022-09-11T05:11:35.549Z,8.88
2022-09-11T05:14:04.446Z,8.65
2022-09-11T05:16:34.703Z,9.45
2022-09-11T05:19:05.280Z,9.00
2022-09-11T05:21:34.139Z,9.93
2022-09-11T05:24:03.905Z,9.88
2022-09-11T05:26:35.912Z,10.27
2022-09-11T05:29:07.420Z,10.82
2022-09-11T05:31:37.333Z,10.60
2022-09-11T05:34:07.070Z,10.98
2022-09-11T05:36:36.384Z,10.85
2022-09-11T05:39:05.540Z,11.10
2022-09-11T05:41:35.295Z,10.90
2022-09-11T05:44:04.261Z,10.98
2022-09-11T05:46:32.668Z,11.82
2022-09-11T05:49:01.243Z,11.15
2022-09-11T05:51:29.916Z,10.93
2022-09-11T05:53:58.820Z,11.65
2022-09-11T05:56:28.393Z,12.73
2022-09-11T05:58:58.956Z,12.63
2022-09-11T06:01:29.112Z,11.63
2022-09-11T06:03:58.352Z,12.32
2022-09-11T06:06:27.038Z,11.23
2022-09-11T06:08:56.143Z,11.73
2022-09-11T06:11:24.452Z,11.68
2022-09-11T06:13:52.779Z,11.98
2022-09-11T06:16:25.280Z,12.23
2022-09-11T06:18:54.912Z,12.63
2022-09-11T06:21:27.336Z,11.55
2022-09-11T06:23:55.829Z,12.98
2022-09-11T06:26:25.855Z,12.52
2022-09-11T06:28:54.760Z,13.45
2022-09-11T06:31:27.062Z,13.43
2022-09-11T06:33:55.799Z,13.10
2022-09-11T06:36:27.055Z,12.60
2022-09-11T06:38:56.980Z,12.88
2022-09-11T06:41:27.200Z,13.35
2022-09-11T06:43:55.773Z,14.43
2022-09-11T06:46:27.090Z,13.93
2022-09-11T06:48:57.774Z,13.32
2022-09-11T06:51:27.297Z,13.98
2022-09-11T06:53:58.263Z,14.02
2022-09-11T06:56:26.768Z,13.32
2022-09-11T06:58:55.192Z,14.50
2022-09-11T07:01:25.073Z,13.93
2022-09-11T07:03:55.387Z,13.35
2022-09-11T07:06:25.558Z,13.93
2022-09-11T07:08:57.253Z,13.23
2022-09-11T07:11:25.666Z,12.60
2022-09-11T07:13:54.285Z,12.93
2022-09-11T07:16:22.707Z,12.80
2022-09-11T07:18:52.839Z,12.15
2022-09-11T07:21:23.110Z,12.82
2022-09-11T07:23:54.699Z,12.63
2022-09-11T07:26:24.600Z,13.10
2022-09-11T07:28:53.285Z,13.05
2022-09-11T07:31:23.257Z,13.85
2022-09-11T07:33:55.056Z,14.10
2022-09-11T07:36:25.764Z,12.88
2022-09-11T07:38:56.000Z,12.65
2022-09-11T07:41:25.806Z,12.85
2022-09-11T07:43:55.535Z,13.10
2022-09-11T07:46:25.353Z,12.38
2022-09-11T07:48:56.452Z,13.10
2022-09-11T07:51:26.738Z,12.57
2022-09-11T07:53:58.125Z,11.82
2022-09-11T07:56:27.840Z,12.60
2022-09-11T07:58:57.511Z,13.32
2022-09-11T08:01:29.963Z,11.77
2022-09-11T08:04:01.889Z,12.20
2022-09-11T08:06:32.639Z,11.02
2022-09-11T08:09:02.567Z,11.73
2022-09-11T08:11:36.219Z,11.68
2022-09-11T08:16:32.934Z,11.57
2022-09-11T08:19:03.347Z,10.75
2022-09-11T08:21:31.755Z,10.32
2022-09-11T08:24:01.137Z,11.43
2022-09-11T08:26:31.387Z,12.85
2022-09-11T08:29:00.985Z,11.50
2022-09-11T08:31:30.205Z,10.93
2022-09-11T08:33:59.127Z,12.00
2022-09-11T08:36:29.796Z,10.07
2022-09-11T08:39:00.374Z,9.48
2022-09-11T08:41:42.580Z,9.05
2022-09-11T08:44:19.963Z,9.60
2022-09-11T08:46:51.407Z,9.15
2022-09-11T08:49:26.052Z,9.38
2022-09-11T08:52:00.330Z,8.70
2022-09-11T08:54:33.660Z,8.98
2022-09-11T08:57:17.034Z,9.25
2022-09-11T09:00:05.751Z,8.68
2022-09-11T09:03:02.986Z,9.10
2022-09-11T09:05:42.820Z,8.98
2022-09-11T09:08:28.977Z,9.25
2022-09-11T09:11:05.328Z,8.80
2022-09-11T09:14:05.988Z,8.00
2022-09-11T09:16:49.359Z,7.85
2022-09-11T09:19:21.760Z,9.27
2022-09-11T09:22:07.485Z,7.88
2022-09-11T09:24:43.916Z,7.97
2022-09-11T09:27:21.623Z,7.53
2022-09-11T09:29:54.847Z,7.90
2022-09-11T09:32:27.308Z,7.53
2022-09-11T09:35:02.281Z,7.55
2022-09-11T09:37:31.071Z,7.05
2022-09-11T09:40:02.669Z,7.10
2022-09-11T09:42:55.903Z,6.88
2022-09-11T09:45:40.365Z,7.90
2022-09-11T09:48:13.392Z,7.45
2022-09-11T09:50:44.178Z,6.90
2022-09-11T09:53:22.510Z,6.60
2022-09-11T09:55:54.533Z,6.32
2022-09-11T09:58:27.491Z,5.95
2022-09-11T10:00:56.885Z,6.18
2022-09-11T10:03:26.854Z,5.47
2022-09-11T10:05:56.790Z,6.10
2022-09-11T10:08:33.935Z,5.80
2022-09-11T10:11:05.976Z,6.32
2022-09-11T10:13:36.348Z,6.05
2022-09-11T10:16:06.690Z,7.15
2022-09-11T10:18:44.154Z,5.47
2022-09-11T10:21:29.767Z,5.22
2022-09-11T10:24:00.627Z,5.72
2022-09-11T10:26:35.813Z,5.28
2022-09-11T10:29:10.068Z,5.40
2022-09-11T10:31:43.063Z,5.25
2022-09-11T10:34:17.368Z,4.55
2022-09-11T10:36:55.456Z,4.35
2022-09-11T10:39:27.938Z,4.43
2022-09-11T10:42:00.628Z,4.70
2022-09-11T10:44:30.989Z,4.70
2022-09-11T10:47:07.205Z,4.90
2022-09-11T10:49:36.390Z,4.75
2022-09-11T10:52:22.582Z,3.97
2022-09-11T10:55:00.966Z,4.20
2022-09-11T10:57:36.648Z,4.40
2022-09-11T11:00:13.561Z,4.47
2022-09-11T11:02:45.383Z,4.15
2022-09-11T11:05:21.995Z,4.07
2022-09-11T11:08:12.335Z,3.88
2022-09-11T11:11:00.706Z,4.32
2022-09-11T11:13:45.376Z,4.53
2022-09-11T11:16:21.591Z,4.45
2022-09-11T11:19:12.996Z,4.45
2022-09-11T11:21:56.351Z,4.85
2022-09-11T11:24:42.682Z,5.00
2022-09-11T11:27:36.844Z,4.68
2022-09-11T11:30:15.954Z,4.78
2022-09-11T11:33:05.259Z,4.53
2022-09-11T11:35:41.964Z,4.40
2022-09-11T11:38:15.511Z,4.65
2022-09-11T11:40:47.991Z,3.80
2022-09-11T11:43:19.009Z,4.50
2022-09-11T11:45:52.515Z,4.28
2022-09-11T11:48:28.795Z,4.18
2022-09-11T11:51:01.048Z,3.65
2022-09-11T11:53:34.383Z,4.20
2022-09-11T11:56:10.268Z,3.58
2022-09-11T11:58:49.660Z,3.92
2022-09-11T12:01:25.713Z,4.18
2022-09-11T12:04:02.848Z,3.20
2022-09-11T12:06:31.511Z,3.50
2022-09-11T12:09:00.280Z,3.53
2022-09-11T12:11:32.386Z,3.33
2022-09-11T12:14:01.672Z,3.45
2022-09-11T12:16:34.909Z,2.75
2022-09-11T12:19:07.839Z,2.75
2022-09-11T12:21:58.075Z,2.65
2022-09-11T12:24:52.608Z,3.10
2022-09-11T12:27:50.086Z,2.70
2022-09-11T12:30:24.451Z,2.33
2022-09-11T12:32:55.232Z,2.10
2022-09-11T12:35:29.227Z,2.10
2022-09-11T12:38:03.274Z,2.00
2022-09-11T12:40:40.399Z,2.30
2022-09-11T12:43:34.005Z,2.30
2022-09-11T12:46:02.944Z,2.47
2022-09-11T12:48:39.892Z,2.50
2022-09-11T12:51:23.760Z,2.25
2022-09-11T12:56:24.284Z,2.05
2022-09-11T12:58:57.164Z,2.15
2022-09-11T13:01:30.813Z,2.17
2022-09-11T13:04:04.740Z,2.47
2022-09-11T13:06:43.195Z,2.80
2022-09-11T13:09:21.507Z,2.30
2022-09-11T13:11:52.239Z,2.22
2022-09-11T13:14:47.774Z,2.35
2022-09-11T13:17:26.853Z,2.30
2022-09-11T13:20:10.896Z,2.03
2022-09-11T13:22:39.832Z,2.05
2022-09-11T13:25:14.527Z,1.98
2022-09-11T13:27:45.745Z,2.17
2022-09-11T13:30:16.151Z,3.03
2022-09-11T13:32:47.411Z,2.28
2022-09-11T13:35:20.088Z,2.38
2022-09-11T13:37:57.553Z,2.30
2022-09-11T13:40:30.521Z,2.13
2022-09-11T13:43:00.806Z,2.00
2022-09-11T13:45:29.758Z,2.95
2022-09-11T13:47:58.544Z,2.15
2022-09-11T13:50:28.668Z,2.00
2022-09-11T13:52:57.207Z,2.25
2022-09-11T13:55:28.166Z,2.22
2022-09-11T13:57:59.367Z,1.88
2022-09-11T14:00:47.385Z,2.10
2022-09-11T14:03:28.145Z,2.00
2022-09-11T14:06:00.712Z,2.20
2022-09-11T14:08:34.943Z,2.50
2022-09-11T14:11:11.254Z,2.75
2022-09-11T14:13:46.550Z,2.38
2022-09-11T14:16:25.509Z,2.33
2022-09-11T14:19:00.362Z,2.30
2022-09-11T14:21:38.489Z,2.55
2022-09-11T14:24:26.545Z,1.95
2022-09-11T14:26:58.411Z,2.22
2022-09-11T14:29:29.333Z,2.00
2022-09-11T14:32:31.313Z,2.10
2022-09-11T14:34:59.799Z,1.90
2022-09-11T14:37:35.236Z,1.70
2022-09-11T14:40:07.175Z,1.88
2022-09-11T14:42:37.902Z,1.77
2022-09-11T14:45:10.074Z,1.90
2022-09-11T14:47:39.224Z,2.03
2022-09-11T14:50:12.178Z,1.33
2022-09-11T14:52:43.127Z,2.28
2022-09-11T14:55:16.131Z,2.20
2022-09-11T14:57:46.832Z,2.17
2022-09-11T15:00:16.346Z,1.50
2022-09-11T15:02:44.792Z,2.10
2022-09-11T15:05:16.788Z,1.60
2022-09-11T15:07:46.656Z,2.20
2022-09-11T15:10:15.632Z,1.90
2022-09-11T15:12:44.667Z,1.50
2022-09-11T15:15:13.095Z,1.88
2022-09-11T15:17:42.039Z,1.63
2022-09-11T15:20:11.315Z,1.70
2022-09-11T15:22:40.136Z,1.40
2022-09-11T15:25:10.467Z,1.60
2022-09-11T15:27:39.120Z,1.83
2022-09-11T15:30:08.363Z,4.13
2022-09-11T15:32:36.776Z,5.53
2022-09-11T15:35:05.538Z,4.10
2022-09-11T15:37:33.964Z,3.88
2022-09-11T15:40:02.442Z,3.83
2022-09-11T15:42:38.838Z,4.55
2022-09-11T15:45:09.563Z,3.22
2022-09-11T15:47:37.946Z,3.70
2022-09-11T15:50:07.406Z,4.30
2022-09-11T15:52:36.516Z,3.72
2022-09-11T15:55:06.483Z,3.65
2022-09-11T15:57:36.947Z,4.10
2022-09-11T16:00:06.772Z,3.80
2022-09-11T16:02:35.109Z,4.35
2022-09-11T16:05:03.593Z,3.95
2022-09-11T16:07:32.009Z,4.22
2022-09-11T16:10:00.401Z,6.00
2022-09-11T16:12:28.801Z,3.80
2022-09-11T16:14:58.908Z,3.53
2022-09-11T16:17:31.342Z,4.28
2022-09-11T16:20:00.146Z,3.90
2022-09-11T16:22:31.491Z,3.88
2022-09-11T16:25:00.733Z,6.57
2022-09-11T16:27:29.911Z,5.03
2022-09-11T16:30:32.201Z,3.88
2022-09-11T16:32:49.055Z,4.05
2022-09-11T16:35:19.273Z,4.07
2022-09-11T16:37:48.594Z,3.60
2022-09-11T16:40:17.804Z,3.70
2022-09-11T16:42:49.300Z,3.22
2022-09-11T16:45:19.939Z,3.70
2022-09-11T16:47:48.377Z,3.58
2022-09-11T16:50:17.873Z,3.35
2022-09-11T16:52:46.299Z,3.50
2022-09-11T16:55:15.491Z,3.53
2022-09-11T16:57:44.891Z,3.15
2022-09-11T17:00:14.312Z,4.13
2022-09-11T17:02:44.095Z,4.72
2022-09-11T17:05:12.744Z,5.10
2022-09-11T17:07:43.272Z,3.80
2022-09-11T17:10:12.540Z,4.05
2022-09-11T17:12:41.058Z,4.50
2022-09-11T17:15:10.832Z,4.68
2022-09-11T17:17:39.300Z,4.93
2022-09-11T17:20:12.027Z,6.78
2022-09-11T17:22:41.063Z,4.10
2022-09-11T17:25:10.271Z,4.07
2022-09-11T17:27:39.087Z,3.95
2022-09-11T17:30:08.975Z,5.68
2022-09-11T17:32:41.193Z,4.38
2022-09-11T17:35:12.598Z,3.78
2022-09-11T17:37:41.369Z,4.30
2022-09-11T17:40:11.590Z,7.22
2022-09-11T17:42:40.637Z,5.40
2022-09-11T17:45:11.632Z,4.88
2022-09-11T17:47:41.500Z,4.45
2022-09-11T17:50:12.187Z,5.28
2022-09-11T17:52:40.477Z,6.30
2022-09-11T17:55:09.525Z,5.20
2022-09-11T17:57:38.064Z,4.70
2022-09-11T18:00:07.543Z,4.68
2022-09-11T18:02:35.883Z,3.65
2022-09-11T18:05:04.337Z,3.88
2022-09-11T18:07:34.284Z,4.43
2022-09-11T18:10:03.487Z,4.20
2022-09-11T18:12:35.493Z,4.15
2022-09-11T18:15:04.693Z,4.38
2022-09-11T18:17:33.478Z,4.47
2022-09-11T18:20:03.432Z,4.50
2022-09-11T18:22:31.961Z,4.40
2022-09-11T18:25:01.952Z,4.00
2022-09-11T18:27:30.327Z,3.92
2022-09-11T18:29:59.889Z,4.35
2022-09-11T18:32:29.952Z,4.22
2022-09-11T18:35:00.138Z,4.38
2022-09-11T18:37:29.019Z,4.28
2022-09-11T18:39:59.511Z,4.43
2022-09-11T18:42:29.999Z,4.80
2022-09-11T18:44:59.961Z,4.95
2022-09-11T18:47:31.045Z,4.60
2022-09-11T18:49:59.802Z,4.70
2022-09-11T18:52:30.948Z,4.80
2022-09-11T18:55:00.249Z,4.65
2022-09-11T18:57:30.519Z,4.35
2022-09-11T19:00:00.226Z,7.20
2022-09-11T19:02:28.936Z,14.63
2022-09-11T19:04:57.891Z,19.42
2022-09-11T19:07:26.966Z,11.63
2022-09-11T19:09:55.538Z,6.60
2022-09-11T19:12:25.009Z,7.97
2022-09-11T19:14:55.744Z,6.97
2022-09-11T19:17:24.110Z,5.80
2022-09-11T19:19:52.748Z,4.80
2022-09-11T19:22:23.008Z,5.05
2022-09-11T19:24:55.515Z,4.53
2022-09-11T19:27:33.461Z,6.13
2022-09-11T19:30:19.096Z,5.22
2022-09-11T19:32:51.053Z,5.22
2022-09-11T19:35:19.673Z,4.50
2022-09-11T19:37:48.794Z,4.45
2022-09-11T19:40:17.728Z,5.00
2022-09-11T19:42:46.812Z,5.55
2022-09-11T19:45:18.144Z,5.63
2022-09-11T19:47:49.268Z,6.50
2022-09-11T19:50:22.161Z,5.28
2022-09-11T19:53:08.951Z,8.65
2022-09-11T19:56:00.981Z,9.07
2022-09-11T19:58:31.802Z,6.00
2022-09-11T20:01:06.912Z,5.47
2022-09-11T20:03:36.339Z,4.90
2022-09-11T20:06:05.405Z,4.95
2022-09-11T20:08:34.978Z,4.68
2022-09-11T20:11:05.189Z,4.35
2022-09-11T20:13:34.155Z,4.78
2022-09-11T20:16:06.386Z,6.50
2022-09-11T20:18:36.619Z,5.50
2022-09-11T20:21:07.059Z,5.78
2022-09-11T20:23:35.844Z,5.70
2022-09-11T20:26:16.256Z,4.88
2022-09-11T20:28:45.844Z,5.30
2022-09-11T20:31:18.872Z,4.60
2022-09-11T20:33:49.664Z,5.50
2022-09-11T20:36:19.495Z,7.38
2022-09-11T20:38:52.468Z,7.57
2022-09-11T20:41:23.654Z,6.10
2022-09-11T20:43:52.835Z,5.85
2022-09-11T20:46:24.417Z,5.78
2022-09-11T20:48:54.460Z,5.68
2022-09-11T20:51:24.116Z,6.05
2022-09-11T20:53:53.018Z,5.70
2022-09-11T20:56:24.020Z,5.63
2022-09-11T20:58:53.807Z,5.00
2022-09-11T21:01:25.344Z,5.10
2022-09-11T21:03:55.642Z,5.50
2022-09-11T21:06:26.910Z,4.88
2022-09-11T21:08:56.876Z,5.20
2022-09-11T21:11:26.232Z,4.53
2022-09-11T21:13:54.800Z,5.40
2022-09-11T21:16:25.474Z,4.95
2022-09-11T21:18:56.217Z,5.32
2022-09-11T21:21:26.210Z,5.28
2022-09-11T21:23:56.500Z,4.90
2022-09-11T21:26:26.404Z,5.45
2022-09-11T21:28:54.755Z,5.07
2022-09-11T21:31:24.731Z,5.20
2022-09-11T21:33:53.338Z,4.68
2022-09-11T21:36:22.139Z,4.55
2022-09-11T21:38:50.523Z,4.72
2022-09-11T21:41:18.900Z,5.25
2022-09-11T21:43:47.834Z,5.80
2022-09-11T21:46:16.259Z,5.70
2022-09-11T21:48:46.456Z,5.50
2022-09-11T21:51:16.874Z,5.95
2022-09-11T21:53:47.116Z,5.68
2022-09-11T21:56:20.612Z,5.10
2022-09-11T21:58:51.241Z,5.50
2022-09-11T22:01:20.578Z,5.38
2022-09-11T22:03:50.707Z,5.22
2022-09-11T22:06:20.504Z,5.28
2022-09-11T22:08:49.115Z,5.45
2022-09-11T22:11:18.613Z,6.22
2022-09-11T22:13:47.926Z,5.88
2022-09-11T22:16:18.949Z,5.72
2022-09-11T22:18:51.344Z,6.07
2022-09-11T22:21:20.360Z,5.82
2022-09-11T22:23:48.805Z,5.55
2022-09-11T22:26:19.872Z,5.53
2022-09-11T22:28:48.428Z,5.63
2022-09-11T22:31:18.811Z,5.47
2022-09-11T22:33:47.286Z,4.70
2022-09-11T22:36:19.780Z,4.88
2022-09-11T22:38:48.728Z,5.25
2022-09-11T22:41:17.876Z,5.68
2022-09-11T22:43:47.646Z,5.57
2022-09-11T22:46:16.260Z,5.38
2022-09-11T22:48:45.143Z,5.57
2022-09-11T22:51:13.696Z,5.25
2022-09-11T22:53:44.008Z,5.50
2022-09-11T22:56:13.978Z,5.75
2022-09-11T22:58:42.419Z,5.47
2022-09-11T23:01:14.096Z,6.03
2022-09-11T23:03:42.593Z,5.70
2022-09-11T23:06:29.977Z,5.68
2022-09-11T23:09:00.599Z,5.38
2022-09-11T23:11:29.829Z,6.03
2022-09-11T23:13:58.820Z,5.72
2022-09-11T23:16:30.342Z,5.95
2022-09-11T23:19:00.580Z,5.63
2022-09-11T23:21:29.835Z,5.22
2022-09-11T23:24:00.834Z,5.50
2022-09-11T23:26:30.388Z,5.30
2022-09-11T23:28:59.765Z,5.38
2022-09-11T23:31:30.491Z,4.90
2022-09-11T23:34:00.434Z,5.78
2022-09-11T23:36:30.897Z,5.70
2022-09-11T23:39:01.341Z,5.60
2022-09-11T23:41:32.152Z,5.00
2022-09-11T23:44:00.914Z,5.40
2022-09-11T23:46:29.173Z,5.53
2022-09-11T23:48:57.860Z,5.25
2022-09-11T23:51:27.094Z,5.57
2022-09-11T23:53:55.603Z,5.30
2022-09-11T23:56:25.387Z,5.57
2022-09-11T23:58:53.710Z,5.55
